createdAt,value
2022-12-28T00:01:23.236Z,84.26
2022-12-28T00:03:50.281Z,84.48
2022-12-28T00:06:17.843Z,86.01
2022-12-28T00:08:44.449Z,86.41
2022-12-28T00:11:28.155Z,86.92
2022-12-28T00:14:01.386Z,87.32
2022-12-28T00:16:32.334Z,87.17
2022-12-28T00:19:00.740Z,87.23
2022-12-28T00:21:28.349Z,86.30
2022-12-28T00:23:57.325Z,85.71
2022-12-28T00:26:25.811Z,85.95
2022-12-28T00:28:55.536Z,86.44
2022-12-28T00:31:26.289Z,85.67
2022-12-28T00:33:52.747Z,85.52
2022-12-28T00:36:19.339Z,85.64
2022-12-28T00:38:45.727Z,85.85
2022-12-28T00:41:12.195Z,86.09
2022-12-28T00:43:38.559Z,86.90
2022-12-28T00:46:05.136Z,86.47
2022-12-28T00:48:32.041Z,85.74
2022-12-28T00:51:11.122Z,85.60
2022-12-28T00:53:37.652Z,85.36
2022-12-28T00:56:08.376Z,85.26
2022-12-28T00:58:35.253Z,85.14
2022-12-28T01:01:02.101Z,85.27
2022-12-28T01:03:28.570Z,85.54
2022-12-28T01:05:54.967Z,85.55
2022-12-28T01:08:21.688Z,84.43
2022-12-28T01:10:48.440Z,83.63
2022-12-28T01:13:14.777Z,82.52
2022-12-28T01:15:41.130Z,83.16
2022-12-28T01:18:07.461Z,83.94
2022-12-28T01:20:34.685Z,84.05
2022-12-28T01:23:01.000Z,83.15
2022-12-28T01:25:27.329Z,82.09
2022-12-28T01:27:53.655Z,82.78
2022-12-28T01:30:20.164Z,83.72
2022-12-28T01:32:46.497Z,84.00
2022-12-28T01:35:12.810Z,83.52
2022-12-28T01:37:39.137Z,83.20
2022-12-28T01:40:06.742Z,82.89
2022-12-28T01:42:33.137Z,82.09
2022-12-28T01:45:17.627Z,81.19
2022-12-28T01:47:46.271Z,80.04
2022-12-28T01:50:17.543Z,79.29
2022-12-28T01:52:55.646Z,78.13
2022-12-28T01:55:27.188Z,77.60
2022-12-28T01:58:08.475Z,77.78
2022-12-28T02:00:35.735Z,77.51
2022-12-28T02:03:13.820Z,76.92
2022-12-28T02:05:44.265Z,76.49
2022-12-28T02:08:18.741Z,75.79
2022-12-28T02:10:46.809Z,75.22
2022-12-28T02:13:15.863Z,75.36
2022-12-28T02:15:43.057Z,75.25
2022-12-28T02:18:10.703Z,74.71
2022-12-28T02:20:57.818Z,74.72
2022-12-28T02:24:01.678Z,74.44
2022-12-28T02:26:38.439Z,74.33
2022-12-28T02:29:22.594Z,74.31
2022-12-28T02:32:03.129Z,73.51
2022-12-28T02:34:44.064Z,74.15
2022-12-28T02:37:16.705Z,73.74
2022-12-28T02:40:01.421Z,73.68
2022-12-28T02:42:30.024Z,73.65
2022-12-28T02:45:15.453Z,73.36
2022-12-28T02:48:02.882Z,73.58
2022-12-28T02:50:40.950Z,73.49
2022-12-28T02:53:27.410Z,73.50
2022-12-28T02:56:09.092Z,73.45
2022-12-28T02:58:59.730Z,73.18
2022-12-28T03:01:41.107Z,73.43
2022-12-28T03:04:32.296Z,73.44
2022-12-28T03:07:35.831Z,73.32
2022-12-28T03:10:34.619Z,73.57
2022-12-28T03:13:27.264Z,73.42
2022-12-28T03:15:55.529Z,73.26
2022-12-28T03:18:42.089Z,73.47
2022-12-28T03:21:29.215Z,73.13
2022-12-28T03:24:15.126Z,72.93
2022-12-28T03:27:05.599Z,74.19
2022-12-28T03:29:58.091Z,76.41
2022-12-28T03:32:24.686Z,77.27
2022-12-28T03:34:51.161Z,78.54
2022-12-28T03:37:25.644Z,78.96
2022-12-28T03:39:58.289Z,79.56
2022-12-28T03:42:54.107Z,80.49
2022-12-28T03:45:45.669Z,80.64
2022-12-28T03:48:16.139Z,81.20
2022-12-28T03:50:45.791Z,81.34
2022-12-28T03:53:12.780Z,80.65
2022-12-28T03:55:40.370Z,79.75
2022-12-28T03:58:07.132Z,79.94
2022-12-28T04:00:33.739Z,79.90
2022-12-28T04:03:00.120Z,81.34
2022-12-28T04:05:26.523Z,81.64
2022-12-28T04:07:52.957Z,82.58
2022-12-28T04:10:19.330Z,82.52
2022-12-28T04:12:45.758Z,82.52
2022-12-28T04:15:12.111Z,83.21
2022-12-28T04:17:38.457Z,83.03
2022-12-28T04:20:05.643Z,83.40
2022-12-28T04:22:32.030Z,83.57
2022-12-28T04:24:58.352Z,82.81
2022-12-28T04:27:24.733Z,82.97
2022-12-28T04:29:51.064Z,82.61
2022-12-28T04:32:17.392Z,82.00
2022-12-28T04:34:48.387Z,81.16
2022-12-28T04:37:15.381Z,80.63
2022-12-28T04:39:54.842Z,81.39
2022-12-28T04:42:24.370Z,80.78
2022-12-28T04:44:50.690Z,80.13
2022-12-28T04:47:17.023Z,80.09
2022-12-28T04:49:43.359Z,79.65
2022-12-28T04:52:09.695Z,78.99
2022-12-28T04:54:36.097Z,78.99
2022-12-28T04:57:02.543Z,79.07
2022-12-28T04:59:28.879Z,77.60
2022-12-28T05:01:55.248Z,76.78
2022-12-28T05:04:21.631Z,76.88
2022-12-28T05:06:47.968Z,76.56
2022-12-28T05:09:14.315Z,76.21
2022-12-28T05:11:40.647Z,75.78
2022-12-28T05:14:07.014Z,75.44
2022-12-28T05:16:33.657Z,74.90
2022-12-28T05:19:00.012Z,74.68
2022-12-28T05:21:27.623Z,74.72
2022-12-28T05:23:54.767Z,74.81
2022-12-28T05:26:24.891Z,76.08
2022-12-28T05:28:51.564Z,77.63
2022-12-28T05:31:20.875Z,77.59
2022-12-28T05:33:47.538Z,76.71
2022-12-28T05:36:19.091Z,76.99
2022-12-28T05:38:45.569Z,76.62
2022-12-28T05:41:15.814Z,75.36
2022-12-28T05:43:43.381Z,74.92
2022-12-28T05:46:15.809Z,74.30
2022-12-28T05:48:43.414Z,74.30
2022-12-28T05:51:13.026Z,74.65
2022-12-28T05:53:40.455Z,74.79
2022-12-28T05:56:14.529Z,75.03
2022-12-28T05:58:42.596Z,74.27
2022-12-28T06:01:15.222Z,73.77
2022-12-28T06:03:42.016Z,73.57
2022-12-28T06:06:17.974Z,75.07
2022-12-28T06:08:46.368Z,74.94
2022-12-28T06:11:16.052Z,75.62
2022-12-28T06:13:43.109Z,75.82
2022-12-28T06:16:12.905Z,75.27
2022-12-28T06:18:39.384Z,75.52
2022-12-28T06:21:09.626Z,74.96
2022-12-28T06:23:36.329Z,75.33
2022-12-28T06:26:04.955Z,75.80
2022-12-28T06:28:31.310Z,76.09
2022-12-28T06:31:06.386Z,75.43
2022-12-28T06:33:33.684Z,75.87
2022-12-28T06:36:00.328Z,75.95
2022-12-28T06:38:27.296Z,76.84
2022-12-28T06:41:12.861Z,76.04
2022-12-28T06:43:41.532Z,76.12
2022-12-28T06:46:08.442Z,75.54
2022-12-28T06:48:35.687Z,75.14
2022-12-28T06:51:16.438Z,74.28
2022-12-28T06:53:43.753Z,74.98
2022-12-28T06:56:24.822Z,74.84
2022-12-28T06:58:56.909Z,74.18
2022-12-28T07:01:30.274Z,75.17
2022-12-28T07:03:58.034Z,75.03
2022-12-28T07:06:27.402Z,74.75
2022-12-28T07:08:59.764Z,75.50
2022-12-28T07:11:26.353Z,75.82
2022-12-28T07:13:52.672Z,77.53
2022-12-28T07:16:21.349Z,78.35
2022-12-28T07:18:48.305Z,79.40
2022-12-28T07:21:21.346Z,79.80
2022-12-28T07:23:48.845Z,80.66
2022-12-28T07:26:20.524Z,80.72
2022-12-28T07:28:48.601Z,80.69
2022-12-28T07:31:23.083Z,80.68
2022-12-28T07:33:51.400Z,80.64
2022-12-28T07:36:19.545Z,80.54
2022-12-28T07:38:46.791Z,81.13
2022-12-28T07:41:16.018Z,81.04
2022-12-28T07:43:42.905Z,81.67
2022-12-28T07:46:19.273Z,81.49
2022-12-28T07:48:45.729Z,80.63
2022-12-28T07:51:13.679Z,80.61
2022-12-28T07:53:41.376Z,80.39
2022-12-28T07:56:07.828Z,81.10
2022-12-28T07:58:35.036Z,80.78
2022-12-28T08:01:08.540Z,81.09
2022-12-28T08:03:35.368Z,81.01
2022-12-28T08:06:06.410Z,80.58
2022-12-28T08:08:40.023Z,81.21
2022-12-28T08:11:08.867Z,80.83
2022-12-28T08:13:37.051Z,80.87
2022-12-28T08:16:04.112Z,80.62
2022-12-28T08:18:31.281Z,80.23
2022-12-28T08:21:02.735Z,80.12
2022-12-28T08:23:30.820Z,80.53
2022-12-28T08:26:04.016Z,79.72
2022-12-28T08:28:30.342Z,79.73
2022-12-28T08:30:56.694Z,78.84
2022-12-28T08:33:23.052Z,78.81
2022-12-28T08:35:49.480Z,78.25
2022-12-28T08:38:15.818Z,78.59
2022-12-28T08:40:42.145Z,78.38
2022-12-28T08:43:08.489Z,78.80
2022-12-28T08:45:34.860Z,78.82
2022-12-28T08:48:01.233Z,79.05
2022-12-28T08:50:31.544Z,78.72
2022-12-28T08:52:58.253Z,78.10
2022-12-28T08:55:24.564Z,77.42
2022-12-28T08:57:50.891Z,76.82
2022-12-28T09:00:17.514Z,76.20
2022-12-28T09:02:43.991Z,75.52
2022-12-28T09:05:10.543Z,75.39
2022-12-28T09:07:36.872Z,74.44
2022-12-28T09:10:03.542Z,74.25
2022-12-28T09:12:29.923Z,73.59
2022-12-28T09:14:56.275Z,73.81
2022-12-28T09:17:22.590Z,74.29
2022-12-28T09:19:48.945Z,73.94
2022-12-28T09:22:15.276Z,73.14
2022-12-28T09:24:41.601Z,74.04
2022-12-28T09:27:07.954Z,73.15
2022-12-28T09:29:34.290Z,73.79
2022-12-28T09:32:01.384Z,73.60
2022-12-28T09:34:37.557Z,73.73
2022-12-28T09:37:05.246Z,74.37
2022-12-28T09:39:31.664Z,74.26
2022-12-28T09:42:15.068Z,74.47
2022-12-28T09:44:56.816Z,75.25
2022-12-28T09:47:33.788Z,75.02
2022-12-28T09:50:00.131Z,75.21
2022-12-28T09:52:31.031Z,75.07
2022-12-28T09:55:05.255Z,75.43
2022-12-28T09:57:37.653Z,74.59
2022-12-28T10:00:06.824Z,74.45
2022-12-28T10:02:36.971Z,75.19
2022-12-28T10:05:04.873Z,75.38
2022-12-28T10:07:31.763Z,74.80
2022-12-28T10:09:58.702Z,74.59
2022-12-28T10:12:25.240Z,73.98
2022-12-28T10:14:53.478Z,72.93
2022-12-28T10:17:26.229Z,72.48
2022-12-28T10:19:56.499Z,72.58
2022-12-28T10:22:26.303Z,71.11
2022-12-28T10:24:53.995Z,71.68
2022-12-28T10:27:29.242Z,72.27
2022-12-28T10:29:55.679Z,70.98
2022-12-28T10:32:22.185Z,71.76
2022-12-28T10:35:00.667Z,71.16
2022-12-28T10:37:34.746Z,70.85
2022-12-28T10:40:04.344Z,71.42
2022-12-28T10:42:43.089Z,71.88
2022-12-28T10:45:18.994Z,71.33
2022-12-28T10:47:54.051Z,71.24
2022-12-28T10:50:41.477Z,71.16
2022-12-28T10:53:26.404Z,70.63
2022-12-28T10:56:17.836Z,71.29
2022-12-28T10:58:46.521Z,71.08
2022-12-28T11:01:13.066Z,69.76
2022-12-28T11:03:54.832Z,67.67
2022-12-28T11:06:27.477Z,66.86
2022-12-28T11:09:12.407Z,64.58
2022-12-28T11:11:39.263Z,64.42
2022-12-28T11:14:24.966Z,64.48
2022-12-28T11:16:53.021Z,64.81
2022-12-28T11:19:20.761Z,64.79
2022-12-28T11:21:47.203Z,65.33
2022-12-28T11:24:16.122Z,64.17
2022-12-28T11:26:49.270Z,64.55
2022-12-28T11:29:18.343Z,63.51
2022-12-28T11:31:59.847Z,64.95
2022-12-28T11:34:28.231Z,63.76
2022-12-28T11:36:55.261Z,64.28
2022-12-28T11:39:27.481Z,63.56
2022-12-28T11:42:36.630Z,63.02
2022-12-28T11:44:41.940Z,62.98
2022-12-28T11:47:28.024Z,63.14
2022-12-28T11:49:54.740Z,62.59
2022-12-28T11:52:24.109Z,62.34
2022-12-28T11:54:59.198Z,63.12
2022-12-28T11:57:40.890Z,62.89
2022-12-28T12:00:22.620Z,61.65
2022-12-28T12:03:00.928Z,62.46
2022-12-28T12:05:37.036Z,62.07
2022-12-28T12:08:13.599Z,62.27
2022-12-28T12:10:41.714Z,62.09
2022-12-28T12:13:26.323Z,61.85
2022-12-28T12:15:58.347Z,62.48
2022-12-28T12:18:27.296Z,62.08
2022-12-28T12:21:06.808Z,62.49
2022-12-28T12:23:36.547Z,62.48
2022-12-28T12:26:21.984Z,62.81
2022-12-28T12:28:51.775Z,63.30
2022-12-28T12:31:29.905Z,63.45
2022-12-28T12:34:19.824Z,62.58
2022-12-28T12:37:02.331Z,62.52
2022-12-28T12:39:46.952Z,63.28
2022-12-28T12:42:46.141Z,62.76
2022-12-28T12:45:20.229Z,61.32
2022-12-28T12:48:05.170Z,61.58
2022-12-28T12:51:09.160Z,60.97
2022-12-28T12:53:48.878Z,60.61
2022-12-28T12:56:25.455Z,59.98
2022-12-28T12:59:15.388Z,60.26
2022-12-28T13:02:01.365Z,59.31
2022-12-28T13:04:31.752Z,58.92
2022-12-28T13:07:04.529Z,59.14
2022-12-28T13:09:33.945Z,59.60
2022-12-28T13:12:02.116Z,59.74
2022-12-28T13:14:29.410Z,59.29
2022-12-28T13:16:58.933Z,59.95
2022-12-28T13:19:27.891Z,60.08
2022-12-28T13:21:55.532Z,58.70
2022-12-28T13:24:27.190Z,58.70
2022-12-28T13:26:55.515Z,58.62
2022-12-28T13:29:24.472Z,57.91
2022-12-28T13:31:52.142Z,58.77
2022-12-28T13:34:29.692Z,58.13
2022-12-28T13:36:59.196Z,58.40
2022-12-28T13:39:34.112Z,59.21
2022-12-28T13:42:05.803Z,59.93
2022-12-28T13:44:38.325Z,59.80
2022-12-28T13:47:07.878Z,59.80
2022-12-28T13:49:41.041Z,60.24
2022-12-28T13:52:16.316Z,60.10
2022-12-28T13:54:48.272Z,60.58
2022-12-28T14:00:04.201Z,60.03
2022-12-28T14:02:30.704Z,60.74
2022-12-28T14:04:57.319Z,59.86
2022-12-28T14:07:28.258Z,60.35
2022-12-28T14:09:55.969Z,59.80
2022-12-28T14:12:23.556Z,59.19
2022-12-28T14:14:51.069Z,58.57
2022-12-28T14:17:18.219Z,57.85
2022-12-28T14:19:45.031Z,58.40
2022-12-28T14:22:30.658Z,58.60
2022-12-28T14:25:13.744Z,58.44
2022-12-28T14:27:42.547Z,58.70
2022-12-28T14:30:22.708Z,58.95
2022-12-28T14:32:49.313Z,58.98
2022-12-28T14:35:22.346Z,58.25
2022-12-28T14:37:58.850Z,58.80
2022-12-28T14:40:27.316Z,59.17
2022-12-28T14:42:54.898Z,58.69
2022-12-28T14:46:07.668Z,59.19
2022-12-28T14:48:35.535Z,58.48
2022-12-28T14:51:05.317Z,59.44
2022-12-28T14:53:32.110Z,59.70
2022-12-28T14:56:07.569Z,60.02
2022-12-28T14:58:41.291Z,59.89
2022-12-28T15:01:09.417Z,59.77
2022-12-28T15:03:56.954Z,60.05
2022-12-28T15:06:27.605Z,60.07
2022-12-28T15:08:55.418Z,60.48
2022-12-28T15:11:24.104Z,60.57
2022-12-28T15:13:50.448Z,60.37
2022-12-28T15:16:18.564Z,60.36
2022-12-28T15:18:45.300Z,60.49
2022-12-28T15:21:14.014Z,60.34
2022-12-28T15:23:40.405Z,60.36
2022-12-28T15:26:11.793Z,60.79
2022-12-28T15:28:38.560Z,61.11
2022-12-28T15:31:06.782Z,61.40
2022-12-28T15:33:34.852Z,61.59
2022-12-28T15:36:16.708Z,61.55
2022-12-28T15:38:44.078Z,61.57
2022-12-28T15:41:28.820Z,61.87
2022-12-28T15:43:55.188Z,62.14
2022-12-28T15:46:21.668Z,62.62
2022-12-28T15:48:48.044Z,62.53
2022-12-28T15:51:14.431Z,62.89
2022-12-28T15:53:41.373Z,63.23
2022-12-28T15:56:22.162Z,62.72
2022-12-28T15:58:48.576Z,62.56
2022-12-28T16:01:15.201Z,62.47
2022-12-28T16:03:41.660Z,62.05
2022-12-28T16:06:08.092Z,62.12
2022-12-28T16:08:34.429Z,62.27
2022-12-28T16:11:09.315Z,62.04
2022-12-28T16:13:35.678Z,62.61
2022-12-28T16:16:06.607Z,62.16
2022-12-28T16:18:32.968Z,62.02
2022-12-28T16:21:04.321Z,62.02
2022-12-28T16:23:32.036Z,62.15
2022-12-28T16:25:59.170Z,62.23
2022-12-28T16:28:26.569Z,61.88
2022-12-28T16:30:53.943Z,61.75
2022-12-28T16:33:20.466Z,62.20
2022-12-28T16:35:50.790Z,62.00
2022-12-28T16:38:23.043Z,61.57
2022-12-28T16:40:49.746Z,61.84
2022-12-28T16:43:18.321Z,61.37
2022-12-28T16:45:44.970Z,61.27
2022-12-28T16:48:14.280Z,61.25
2022-12-28T16:50:41.059Z,61.62
2022-12-28T16:53:07.517Z,61.86
2022-12-28T16:55:42.762Z,62.60
2022-12-28T16:58:09.710Z,63.13
2022-12-28T17:00:36.092Z,64.48
2022-12-28T17:03:02.634Z,64.59
2022-12-28T17:05:33.944Z,65.64
2022-12-28T17:08:00.534Z,65.86
2022-12-28T17:10:27.154Z,65.40
2022-12-28T17:12:53.467Z,65.00
2022-12-28T17:15:19.826Z,64.30
2022-12-28T17:17:46.161Z,64.75
2022-12-28T17:20:12.782Z,64.75
2022-12-28T17:22:39.160Z,64.48
2022-12-28T17:25:06.228Z,64.50
2022-12-28T17:27:32.931Z,63.94
2022-12-28T17:29:59.266Z,64.10
2022-12-28T17:32:25.740Z,64.70
2022-12-28T17:34:52.242Z,65.28
2022-12-28T17:37:18.594Z,64.86
2022-12-28T17:39:44.952Z,64.78
2022-12-28T17:42:11.713Z,63.65
2022-12-28T17:44:38.221Z,62.89
2022-12-28T17:47:04.644Z,62.61
2022-12-28T17:49:30.971Z,63.96
2022-12-28T17:51:57.310Z,64.13
2022-12-28T17:54:23.830Z,65.66
2022-12-28T17:56:50.255Z,65.60
2022-12-28T17:59:17.142Z,65.62
2022-12-28T18:01:44.585Z,66.10
2022-12-28T18:04:11.976Z,65.60
2022-12-28T18:06:38.884Z,65.82
2022-12-28T18:09:05.224Z,66.13
2022-12-28T18:11:31.646Z,66.37
2022-12-28T18:13:59.068Z,66.43
2022-12-28T18:16:27.220Z,66.37
2022-12-28T18:18:53.923Z,66.36
2022-12-28T18:21:23.003Z,67.06
2022-12-28T18:23:51.717Z,67.30
2022-12-28T18:26:25.916Z,65.80
2022-12-28T18:28:53.327Z,66.27
2022-12-28T18:31:20.230Z,65.08
2022-12-28T18:33:46.601Z,65.50
2022-12-28T18:36:17.653Z,64.34
2022-12-28T18:38:45.307Z,64.78
2022-12-28T18:41:15.460Z,65.14
2022-12-28T18:43:42.765Z,64.85
2022-12-28T18:46:10.159Z,65.47
2022-12-28T18:48:39.125Z,65.54
2022-12-28T18:51:07.544Z,66.22
2022-12-28T18:53:34.448Z,65.91
2022-12-28T18:56:12.249Z,65.39
2022-12-28T18:58:39.846Z,65.22
2022-12-28T19:01:20.527Z,64.88
2022-12-28T19:03:58.666Z,64.89
2022-12-28T19:06:29.294Z,65.01
2022-12-28T19:08:59.637Z,64.92
2022-12-28T19:11:26.902Z,64.57
2022-12-28T19:13:53.250Z,64.03
2022-12-28T19:16:24.573Z,64.63
2022-12-28T19:18:53.486Z,64.52
2022-12-28T19:21:29.731Z,64.15
2022-12-28T19:23:59.373Z,64.17
2022-12-28T19:26:25.703Z,64.59
2022-12-28T19:28:52.393Z,64.59
2022-12-28T19:31:18.963Z,64.62
2022-12-28T19:33:45.364Z,64.22
2022-12-28T19:36:12.120Z,63.91
2022-12-28T19:38:38.964Z,63.84
2022-12-28T19:41:10.755Z,63.48
2022-12-28T19:43:37.366Z,63.14
2022-12-28T19:46:21.848Z,62.73
2022-12-28T19:48:48.535Z,61.52
2022-12-28T19:51:15.347Z,60.89
2022-12-28T19:53:41.809Z,60.52
2022-12-28T19:56:11.727Z,59.94
2022-12-28T19:58:43.427Z,60.04
2022-12-28T20:01:21.490Z,59.65
2022-12-28T20:03:48.798Z,59.87
2022-12-28T20:06:22.140Z,59.55
2022-12-28T20:08:50.749Z,58.89
2022-12-28T20:11:18.729Z,59.13
2022-12-28T20:13:50.012Z,59.42
2022-12-28T20:16:16.471Z,58.90
2022-12-28T20:18:46.751Z,58.77
2022-12-28T20:21:21.619Z,58.87
2022-12-28T20:23:49.427Z,59.04
2022-12-28T20:26:16.970Z,59.21
2022-12-28T20:28:43.556Z,58.31
2022-12-28T20:31:13.250Z,58.63
2022-12-28T20:33:39.915Z,58.85
2022-12-28T20:36:18.187Z,59.08
2022-12-28T20:38:45.000Z,58.60
2022-12-28T20:41:41.109Z,58.65
2022-12-28T20:44:09.930Z,59.56
2022-12-28T20:46:36.771Z,59.96
2022-12-28T20:49:03.877Z,59.96
2022-12-28T20:51:30.402Z,59.93
2022-12-28T20:53:56.774Z,59.56
2022-12-28T20:56:23.262Z,59.54
2022-12-28T20:58:50.014Z,59.55
2022-12-28T21:01:17.565Z,60.07
2022-12-28T21:03:44.578Z,60.10
2022-12-28T21:06:11.454Z,60.46
2022-12-28T21:08:38.059Z,60.86
2022-12-28T21:11:04.596Z,61.33
2022-12-28T21:13:30.963Z,62.01
2022-12-28T21:15:57.610Z,61.52
2022-12-28T21:18:24.081Z,61.42
2022-12-28T21:21:00.124Z,61.73
2022-12-28T21:23:31.021Z,61.40
2022-12-28T21:26:05.481Z,61.05
2022-12-28T21:28:32.255Z,61.40
2022-12-28T21:30:59.852Z,61.59
2022-12-28T21:33:26.252Z,61.42
2022-12-28T21:35:59.297Z,61.74
2022-12-28T21:38:25.878Z,62.46
2022-12-28T21:41:01.028Z,62.02
2022-12-28T21:43:28.384Z,63.01
2022-12-28T21:46:02.291Z,63.13
2022-12-28T21:48:32.212Z,62.64
2022-12-28T21:51:31.230Z,62.35
2022-12-28T21:54:04.543Z,62.47
2022-12-28T21:56:31.773Z,63.37
2022-12-28T21:58:58.664Z,63.57
2022-12-28T22:01:44.703Z,63.27
2022-12-28T22:04:40.274Z,63.85
2022-12-28T22:07:08.627Z,63.47
2022-12-28T22:09:54.352Z,62.29
2022-12-28T22:12:39.669Z,61.16
2022-12-28T22:15:36.465Z,61.45
2022-12-28T22:18:52.558Z,60.97
2022-12-28T22:21:10.196Z,60.37
2022-12-28T22:23:36.576Z,60.25
2022-12-28T22:26:03.418Z,60.12
2022-12-28T22:28:29.800Z,59.75
2022-12-28T22:30:56.143Z,58.67
2022-12-28T22:33:22.583Z,59.58
2022-12-28T22:35:48.946Z,57.73
2022-12-28T22:38:15.349Z,57.79
2022-12-28T22:40:41.785Z,57.42
2022-12-28T22:43:08.118Z,57.96
2022-12-28T22:45:34.675Z,58.08
2022-12-28T22:48:01.079Z,57.97
2022-12-28T22:50:28.044Z,57.86
2022-12-28T22:52:55.754Z,58.42
2022-12-28T22:55:22.104Z,58.74
2022-12-28T22:57:48.428Z,59.09
2022-12-28T23:00:15.059Z,58.28
2022-12-28T23:02:42.931Z,59.00
2022-12-28T23:05:10.656Z,58.74
2022-12-28T23:07:38.468Z,58.11
2022-12-28T23:10:06.649Z,57.78
2022-12-28T23:12:33.563Z,57.20
2022-12-28T23:15:19.169Z,56.97
2022-12-28T23:17:48.206Z,56.66
2022-12-28T23:20:33.454Z,56.01
2022-12-28T23:23:18.311Z,55.98
2022-12-28T23:26:03.070Z,54.32
2022-12-28T23:28:29.407Z,53.27
2022-12-28T23:30:56.420Z,54.24
2022-12-28T23:33:23.278Z,54.30
2022-12-28T23:35:49.655Z,54.61
2022-12-28T23:38:16.024Z,55.28
2022-12-28T23:40:42.615Z,55.74
2022-12-28T23:43:08.964Z,55.64
2022-12-28T23:45:36.041Z,55.48
2022-12-28T23:48:02.411Z,54.72
2022-12-28T23:50:28.811Z,53.63
2022-12-28T23:52:55.213Z,54.39
2022-12-28T23:55:21.588Z,54.61
2022-12-28T23:57:47.915Z,54.49
